Time;durP1;ratioP1;P1;durP2;ratioP2;P2;SDS_P1;SDS_P2;PMS_P1;PMS_P2;Temp;Humidity;BMP_temperature;BMP_pressure;BME280_temperature;BME280_humidity;BME280_pressure;Samples;Min_cycle;Max_cycle;Signal;HPM_P1;HPM_P2
2022/04/03 00:00:58;;;;;;;8.93;8.03;;;3.40;90.80;;;;;;5115299;28;20172;-44
2022/04/03 00:03:24;;;;;;;9.37;8.37;;;3.40;90.80;;;;;;5114745;28;20430;-44
2022/04/03 00:05:50;;;;;;;9.77;8.63;;;3.40;90.80;;;;;;5115863;28;20549;-44
2022/04/03 00:08:15;;;;;;;9.27;8.40;;;3.40;90.80;;;;;;5100928;28;20309;-44
2022/04/03 00:10:43;;;;;;;9.17;8.27;;;3.40;90.80;;;;;;5093907;28;20200;-44
2022/04/03 00:13:08;;;;;;;9.33;8.43;;;3.40;90.80;;;;;;5094258;28;20216;-44
2022/04/03 00:15:38;;;;;;;9.77;8.87;;;3.40;90.80;;;;;;5094255;28;20473;-44
2022/04/03 00:18:04;;;;;;;9.80;8.63;;;3.40;90.80;;;;;;5094867;28;20180;-44
2022/04/03 00:20:29;;;;;;;9.40;8.50;;;3.40;90.80;;;;;;5094596;28;20431;-44
2022/04/03 00:22:55;;;;;;;9.70;8.77;;;3.40;90.80;;;;;;5095202;28;20556;-44
2022/04/03 00:25:21;;;;;;;8.57;7.73;;;3.40;90.70;;;;;;5095297;28;20181;-44
2022/04/03 00:27:46;;;;;;;9.20;8.30;;;3.40;90.70;;;;;;5095046;28;20177;-44
2022/04/03 00:30:13;;;;;;;9.40;8.50;;;3.40;90.70;;;;;;5094695;28;20234;-43
2022/04/03 00:32:38;;;;;;;8.97;8.17;;;3.40;90.70;;;;;;5094656;28;20180;-45
2022/04/03 00:35:05;;;;;;;10.40;8.40;;;3.40;90.70;;;;;;5094867;28;20831;-44
2022/04/03 00:37:31;;;;;;;10.20;8.60;;;3.30;90.70;;;;;;5094631;28;20806;-45
2022/04/03 00:39:56;;;;;;;10.33;9.20;;;3.40;90.70;;;;;;5094751;28;20475;-44
2022/04/03 00:42:22;;;;;;;10.20;9.20;;;3.30;90.60;;;;;;5093940;28;20888;-44
2022/04/03 00:44:48;;;;;;;10.03;9.13;;;3.30;90.70;;;;;;5095411;28;20180;-44
2022/04/03 00:47:15;;;;;;;10.70;9.70;;;3.30;90.70;;;;;;5095449;28;20423;-44
2022/04/03 00:49:40;;;;;;;11.43;8.57;;;3.30;90.70;;;;;;5094134;28;20229;-44
2022/04/03 00:52:06;;;;;;;11.23;10.13;;;3.30;90.70;;;;;;5094382;28;20960;-44
2022/04/03 00:54:32;;;;;;;10.40;9.40;;;3.30;90.60;;;;;;5095604;28;20188;-44
2022/04/03 00:56:58;;;;;;;10.37;9.07;;;3.30;90.60;;;;;;5095328;28;20266;-44
2022/04/03 00:59:23;;;;;;;10.37;9.37;;;3.30;90.60;;;;;;5094075;28;20188;-44
2022/04/03 01:01:49;;;;;;;9.50;8.53;;;3.30;90.70;;;;;;5100300;28;20429;-44
2022/04/03 01:04:14;;;;;;;10.67;8.43;;;3.30;90.70;;;;;;5116701;28;20283;-44
2022/04/03 01:06:40;;;;;;;10.27;9.20;;;3.30;90.70;;;;;;5114996;28;20181;-44
2022/04/03 01:09:06;;;;;;;9.70;8.70;;;3.30;90.70;;;;;;5115972;28;20180;-44
2022/04/03 01:11:32;;;;;;;9.87;8.87;;;3.30;90.70;;;;;;5113706;28;20468;-44
2022/04/03 01:13:58;;;;;;;10.33;9.23;;;3.30;90.70;;;;;;5113965;28;20478;-45
2022/04/03 01:16:24;;;;;;;11.17;10.00;;;3.30;90.70;;;;;;5114351;28;20486;-44
2022/04/03 01:18:50;;;;;;;9.83;8.83;;;3.30;90.70;;;;;;5114718;28;20433;-45
2022/04/03 01:21:17;;;;;;;10.33;9.23;;;3.30;90.70;;;;;;5114574;28;20191;-44
2022/04/03 01:23:43;;;;;;;10.30;9.23;;;3.30;90.70;;;;;;5115245;28;20441;-44
2022/04/03 01:26:09;;;;;;;10.33;9.33;;;3.30;90.70;;;;;;5116236;28;20417;-44
2022/04/03 01:28:34;;;;;;;10.13;8.23;;;3.30;90.70;;;;;;5119820;28;20425;-44
2022/04/03 01:31:00;;;;;;;10.43;9.43;;;3.30;90.60;;;;;;5119641;28;20210;-44
2022/04/03 01:33:26;;;;;;;10.70;9.70;;;3.30;90.60;;;;;;5120786;28;20187;-44
2022/04/03 01:35:51;;;;;;;11.37;10.13;;;3.30;90.60;;;;;;5119922;28;20555;-42
2022/04/03 01:38:17;;;;;;;10.77;9.37;;;3.30;90.60;;;;;;5120503;28;20409;-44
2022/04/03 01:40:43;;;;;;;10.67;9.67;;;3.30;90.60;;;;;;5120015;28;20191;-44
2022/04/03 01:43:10;;;;;;;10.53;9.53;;;3.30;90.70;;;;;;5118787;28;20794;-44
2022/04/03 01:45:40;;;;;;;9.90;9.00;;;3.30;90.70;;;;;;5119256;28;20192;-44
2022/04/03 01:48:06;;;;;;;12.20;10.90;;;3.30;90.60;;;;;;5120184;28;20418;-44
2022/04/03 01:50:32;;;;;;;11.70;10.50;;;3.30;90.60;;;;;;5119367;28;20521;-45
2022/04/03 01:52:58;;;;;;;11.90;10.70;;;3.30;90.70;;;;;;5119432;28;20445;-44
2022/04/03 01:55:25;;;;;;;12.33;10.40;;;3.30;90.70;;;;;;5118762;28;20749;-44
2022/04/03 01:57:54;;;;;;;10.90;9.70;;;3.30;90.70;;;;;;5118398;28;20569;-45
2022/04/03 02:00:20;;;;;;;12.97;11.47;;;3.30;91.00;;;;;;5118797;28;20466;-44
2022/04/03 02:02:46;;;;;;;11.57;9.97;;;3.30;90.70;;;;;;5120078;28;20422;-44
2022/04/03 02:05:12;;;;;;;12.33;11.03;;;3.30;90.70;;;;;;5118339;28;20433;-44
2022/04/03 02:07:38;;;;;;;13.10;10.37;;;3.30;90.70;;;;;;5118317;28;20912;-44
2022/04/03 02:10:09;;;;;;;12.10;10.87;;;3.20;90.70;;;;;;5117505;28;20270;-43
2022/04/03 02:12:40;;;;;;;12.43;10.80;;;3.20;90.60;;;;;;5117021;28;20406;-44
2022/04/03 02:15:08;;;;;;;11.87;10.67;;;3.20;90.60;;;;;;5117601;28;20665;-44
2022/04/03 02:17:34;;;;;;;12.30;11.00;;;3.20;90.70;;;;;;5118940;28;20413;-45
2022/04/03 02:20:00;;;;;;;11.17;10.07;;;3.20;90.70;;;;;;5118816;28;20406;-44
2022/04/03 02:22:26;;;;;;;12.00;10.80;;;3.20;90.70;;;;;;5119220;28;20244;-44
2022/04/03 02:24:51;;;;;;;11.97;10.77;;;3.20;90.70;;;;;;5118502;28;20418;-45
2022/04/03 02:27:17;;;;;;;11.63;10.53;;;3.20;90.70;;;;;;5118777;28;20207;-45
2022/04/03 02:29:43;;;;;;;11.50;10.00;;;3.20;90.70;;;;;;5118086;28;20495;-44
2022/04/03 02:32:08;;;;;;;11.07;9.97;;;3.20;90.70;;;;;;5116417;28;20545;-44
2022/04/03 02:34:34;;;;;;;10.40;9.40;;;3.20;90.80;;;;;;5117426;28;20267;-44
2022/04/03 02:37:00;;;;;;;12.47;10.70;;;3.20;90.80;;;;;;5116675;28;20200;-45
2022/04/03 02:39:25;;;;;;;11.53;10.37;;;3.20;90.80;;;;;;5115794;28;20173;-44
2022/04/03 02:41:51;;;;;;;11.97;10.80;;;3.20;90.80;;;;;;5116624;28;20208;-44
2022/04/03 02:44:17;;;;;;;12.60;11.30;;;3.20;91.10;;;;;;5117308;28;20181;-45
2022/04/03 02:46:42;;;;;;;12.63;10.70;;;3.20;90.80;;;;;;5117199;28;20179;-45
2022/04/03 02:49:08;;;;;;;11.77;10.67;;;3.20;90.80;;;;;;5119053;28;20306;-44
2022/04/03 02:51:37;;;;;;;14.07;12.70;;;3.20;90.80;;;;;;5117130;28;20618;-44
2022/04/03 02:54:03;;;;;;;11.60;10.53;;;3.20;90.80;;;;;;5118946;28;20569;-44
2022/04/03 02:56:29;;;;;;;13.17;11.90;;;3.20;90.80;;;;;;5118427;28;20991;-45
2022/04/03 02:58:55;;;;;;;12.37;11.13;;;3.20;90.80;;;;;;5117941;28;20410;-45
2022/04/03 03:01:22;;;;;;;12.80;11.53;;;3.20;90.80;;;;;;5117967;28;20176;-44
2022/04/03 03:03:47;;;;;;;12.87;11.70;;;3.20;90.90;;;;;;5118198;28;20485;-44
2022/04/03 03:06:14;;;;;;;12.93;10.47;;;3.20;90.90;;;;;;5118784;28;20708;-44
2022/04/03 03:08:41;;;;;;;13.00;11.70;;;3.20;90.90;;;;;;5118280;28;20215;-44
2022/04/03 03:11:07;;;;;;;12.17;10.87;;;3.20;90.90;;;;;;5117635;28;20500;-44
2022/04/03 03:13:32;;;;;;;13.27;11.97;;;3.20;90.90;;;;;;5116179;28;20446;-44
2022/04/03 03:15:58;;;;;;;13.33;11.53;;;3.20;90.90;;;;;;5116201;28;20528;-44
2022/04/03 03:18:23;;;;;;;14.00;12.60;;;3.20;90.90;;;;;;5117085;28;20511;-45
2022/04/03 03:20:50;;;;;;;12.90;11.70;;;3.20;90.90;;;;;;5116798;28;20556;-43
2022/04/03 03:23:16;;;;;;;12.13;10.93;;;3.20;90.90;;;;;;5116083;28;20183;-44
2022/04/03 03:25:43;;;;;;;11.27;10.13;;;3.20;90.90;;;;;;5117281;28;20418;-44
2022/04/03 03:28:09;;;;;;;12.53;11.33;;;3.20;90.90;;;;;;5117430;28;20188;-43
2022/04/03 03:30:34;;;;;;;13.40;11.50;;;3.20;91.00;;;;;;5118332;28;20458;-45
2022/04/03 03:33:00;;;;;;;12.43;11.30;;;3.20;91.00;;;;;;5116542;28;20314;-44
2022/04/03 03:35:26;;;;;;;12.73;11.23;;;3.20;91.00;;;;;;5115331;28;20180;-45
2022/04/03 03:37:52;;;;;;;12.67;11.37;;;3.20;91.00;;;;;;5116635;28;20254;-44
2022/04/03 03:40:17;;;;;;;13.77;12.33;;;3.20;91.00;;;;;;5115508;28;20177;-43
2022/04/03 03:42:43;;;;;;;12.90;11.53;;;3.20;91.00;;;;;;5115627;28;20263;-45
2022/04/03 03:45:13;;;;;;;16.20;12.20;;;3.20;91.00;;;;;;5116748;28;20263;-44
2022/04/03 03:47:39;;;;;;;12.53;11.23;;;3.20;91.00;;;;;;5115268;28;20172;-43
2022/04/03 03:50:05;;;;;;;12.30;11.10;;;3.20;91.00;;;;;;5114706;28;20423;-44
2022/04/03 03:52:31;;;;;;;14.17;12.10;;;3.10;91.00;;;;;;5117460;27;20537;-44
2022/04/03 03:54:56;;;;;;;14.10;11.40;;;3.10;91.00;;;;;;5116889;28;20550;-45
2022/04/03 03:57:22;;;;;;;12.57;11.27;;;3.10;91.00;;;;;;5117188;28;20176;-44
2022/04/03 03:59:48;;;;;;;15.70;12.80;;;3.10;91.00;;;;;;5115501;28;20187;-44
2022/04/03 04:02:13;;;;;;;13.20;11.80;;;3.10;91.00;;;;;;5114489;28;20192;-44
2022/04/03 04:04:39;;;;;;;11.80;10.60;;;3.10;91.00;;;;;;5115779;28;20195;-48
2022/04/03 04:07:05;;;;;;;12.30;11.10;;;3.10;91.00;;;;;;5115449;28;20343;-48
2022/04/03 04:09:31;;;;;;;12.80;11.50;;;3.10;91.00;;;;;;5115672;28;20176;-48
2022/04/03 04:11:56;;;;;;;12.73;11.43;;;3.20;91.00;;;;;;5114642;28;20468;-47
2022/04/03 04:14:22;;;;;;;13.13;11.83;;;3.20;90.90;;;;;;5114343;28;20173;-48
2022/04/03 04:16:48;;;;;;;12.40;10.90;;;3.20;90.80;;;;;;5115011;28;20164;-48
2022/04/03 04:19:15;;;;;;;12.60;11.30;;;3.20;90.80;;;;;;5115439;28;20251;-48
2022/04/03 04:21:41;;;;;;;18.10;11.07;;;3.20;90.70;;;;;;5115679;28;20679;-48
2022/04/03 04:24:07;;;;;;;13.40;11.60;;;3.30;90.70;;;;;;5115799;28;20402;-48
2022/04/03 04:26:32;;;;;;;12.00;10.60;;;3.20;90.60;;;;;;5115759;28;20402;-48
2022/04/03 04:28:58;;;;;;;13.07;11.70;;;3.20;90.60;;;;;;5116744;28;20412;-47
2022/04/03 04:31:23;;;;;;;14.83;11.50;;;3.20;90.50;;;;;;5116111;28;20268;-49
2022/04/03 04:33:49;;;;;;;11.90;10.70;;;3.20;90.50;;;;;;5115752;28;20459;-47
2022/04/03 04:36:15;;;;;;;12.40;11.07;;;3.20;90.40;;;;;;5116343;28;20168;-48
2022/04/03 04:38:41;;;;;;;12.53;11.00;;;3.20;90.40;;;;;;5117275;28;20211;-48
2022/04/03 04:41:07;;;;;;;13.20;11.03;;;3.20;90.40;;;;;;5116462;28;20350;-48
2022/04/03 04:43:32;;;;;;;14.40;12.10;;;3.20;90.40;;;;;;5115567;28;20476;-48
2022/04/03 04:45:58;;;;;;;12.57;11.30;;;3.20;90.40;;;;;;5115124;28;20716;-48
2022/04/03 04:48:24;;;;;;;15.77;12.50;;;3.20;90.40;;;;;;5115900;28;20570;-48
2022/04/03 04:50:49;;;;;;;12.43;11.23;;;3.20;90.40;;;;;;5116024;28;20188;-48
2022/04/03 04:53:15;;;;;;;12.00;10.80;;;3.20;90.40;;;;;;5116565;28;20181;-48
2022/04/03 04:55:41;;;;;;;11.93;10.83;;;3.20;90.40;;;;;;5116505;28;20173;-48
2022/04/03 04:58:07;;;;;;;11.53;10.37;;;3.20;90.40;;;;;;5116319;28;20454;-48
2022/04/03 05:00:33;;;;;;;12.43;11.23;;;3.20;90.40;;;;;;5115288;28;20418;-47
2022/04/03 05:02:59;;;;;;;13.73;12.20;;;3.20;90.40;;;;;;5114163;28;20266;-48
2022/04/03 05:05:27;;;;;;;11.90;10.70;;;3.10;90.40;;;;;;5114311;28;20190;-48
2022/04/03 05:07:58;;;;;;;12.70;11.40;;;3.10;90.40;;;;;;5113289;28;20852;-48
2022/04/03 05:10:24;;;;;;;12.33;11.10;;;3.10;90.40;;;;;;5113846;28;20728;-48
2022/04/03 05:12:50;;;;;;;13.57;11.30;;;3.10;90.40;;;;;;5113653;28;20498;-48
2022/04/03 05:15:17;;;;;;;13.80;11.57;;;3.20;90.50;;;;;;5112325;28;20715;-48
2022/04/03 05:17:43;;;;;;;13.77;12.40;;;3.10;90.40;;;;;;5114631;28;20175;-48
2022/04/03 05:20:11;;;;;;;12.60;11.33;;;3.20;90.50;;;;;;5114078;28;20505;-48
2022/04/03 05:22:36;;;;;;;13.13;11.87;;;3.20;90.80;;;;;;5116118;28;20846;-48
2022/04/03 05:25:04;;;;;;;13.23;11.83;;;3.20;90.50;;;;;;5115362;28;20414;-48
2022/04/03 05:27:33;;;;;;;12.90;10.87;;;3.20;90.50;;;;;;5113630;28;20469;-48
2022/04/03 05:29:59;;;;;;;12.77;11.47;;;3.20;90.40;;;;;;5114071;28;20475;-48
2022/04/03 05:32:27;;;;;;;12.97;11.57;;;3.20;90.40;;;;;;5114150;28;20465;-48
2022/04/03 05:34:53;;;;;;;13.47;12.03;;;3.20;90.40;;;;;;5114772;28;20172;-48
2022/04/03 05:37:19;;;;;;;18.00;14.10;;;3.20;90.40;;;;;;5114135;28;20418;-48
2022/04/03 05:39:45;;;;;;;17.40;13.67;;;3.30;90.70;;;;;;5115113;28;20405;-48
2022/04/03 05:42:12;;;;;;;26.90;19.10;;;3.30;90.30;;;;;;5115463;28;20883;-48
2022/04/03 05:44:38;;;;;;;21.40;16.93;;;3.30;90.30;;;;;;5115593;28;20419;-48
2022/04/03 05:47:04;;;;;;;21.00;16.97;;;3.40;90.30;;;;;;5115360;28;20873;-48
2022/04/03 05:49:30;;;;;;;22.83;16.47;;;3.40;90.20;;;;;;5114817;28;20510;-48
2022/04/03 05:51:56;;;;;;;19.80;15.37;;;3.50;90.20;;;;;;5114299;28;20457;-48
2022/04/03 05:54:21;;;;;;;16.63;14.10;;;3.50;90.10;;;;;;5116002;28;20184;-48
2022/04/03 05:56:47;;;;;;;16.70;14.13;;;3.60;90.00;;;;;;5114679;28;20173;-48
2022/04/03 05:59:13;;;;;;;15.93;13.87;;;3.60;89.90;;;;;;5115330;28;20264;-48
2022/04/03 06:01:39;;;;;;;16.43;13.47;;;3.60;89.60;;;;;;5115870;28;20184;-48
2022/04/03 06:04:04;;;;;;;14.70;13.10;;;3.70;89.60;;;;;;5114118;28;20605;-48
2022/04/03 06:06:31;;;;;;;13.53;12.20;;;3.70;89.40;;;;;;5114188;28;20425;-48
2022/04/03 06:08:57;;;;;;;13.53;11.83;;;3.80;89.30;;;;;;5115380;28;20172;-48
2022/04/03 06:11:23;;;;;;;13.47;12.13;;;3.80;89.20;;;;;;5114666;28;20466;-48
2022/04/03 06:13:49;;;;;;;13.10;11.70;;;3.90;89.10;;;;;;5115471;28;20426;-47
2022/04/03 06:16:15;;;;;;;13.50;12.10;;;4.00;88.90;;;;;;5117402;28;20582;-48
2022/04/03 06:18:43;;;;;;;12.87;11.50;;;4.10;88.70;;;;;;5117754;28;20259;-48
2022/04/03 06:21:09;;;;;;;12.33;11.13;;;4.20;88.40;;;;;;5118690;28;20470;-48
2022/04/03 06:23:34;;;;;;;12.67;11.37;;;4.20;88.10;;;;;;5100083;28;20474;-48
2022/04/03 06:26:02;;;;;;;11.47;10.37;;;4.30;87.80;;;;;;5097182;28;20560;-48
2022/04/03 06:28:28;;;;;;;11.87;10.67;;;4.40;87.50;;;;;;5098658;28;20177;-48
2022/04/03 06:30:55;;;;;;;12.90;11.60;;;4.50;87.20;;;;;;5098271;28;20876;-48
2022/04/03 06:33:20;;;;;;;11.67;10.57;;;4.60;86.80;;;;;;5097511;28;20251;-48
2022/04/03 06:35:46;;;;;;;10.20;9.30;;;4.70;86.50;;;;;;5098047;28;20873;-48
2022/04/03 06:38:14;;;;;;;11.57;10.37;;;4.80;86.20;;;;;;5098885;28;20411;-48
2022/04/03 06:40:54;;;;;;;10.43;9.37;;;5.00;85.90;;;;;;5097957;28;20436;-47
2022/04/03 06:43:22;;;;;;;11.40;10.10;;;5.10;85.50;;;;;;5097955;28;20485;-48
2022/04/03 06:45:48;;;;;;;12.13;10.67;;;5.20;85.10;;;;;;5098113;28;20725;-48
2022/04/03 06:48:14;;;;;;;10.27;8.80;;;5.30;84.70;;;;;;5096254;28;20683;-48
2022/04/03 06:50:40;;;;;;;10.40;9.50;;;5.40;84.10;;;;;;5095529;28;20467;-48
2022/04/03 06:53:05;;;;;;;9.30;8.40;;;5.50;83.60;;;;;;5096795;28;20830;-48
2022/04/03 06:55:31;;;;;;;10.00;9.00;;;5.50;82.90;;;;;;5095475;28;20192;-48
2022/04/03 06:57:57;;;;;;;10.00;8.70;;;5.60;82.60;;;;;;5095846;28;20428;-48
2022/04/03 07:00:23;;;;;;;12.47;9.70;;;5.60;82.30;;;;;;5095398;28;20177;-48
2022/04/03 07:02:51;;;;;;;11.70;9.90;;;5.70;82.10;;;;;;5094897;28;20169;-48
2022/04/03 07:05:17;;;;;;;10.37;9.10;;;5.80;81.90;;;;;;5095756;28;20422;-48
2022/04/03 07:07:43;;;;;;;9.13;8.33;;;5.80;81.50;;;;;;5094584;28;20411;-48
2022/04/03 07:10:09;;;;;;;9.80;8.87;;;5.90;81.40;;;;;;5095216;28;20670;-48
2022/04/03 07:12:35;;;;;;;10.40;9.40;;;6.10;81.40;;;;;;5095502;28;20212;-48
2022/04/03 07:15:02;;;;;;;10.20;9.20;;;6.20;80.70;;;;;;5094757;28;20422;-48
2022/04/03 07:17:27;;;;;;;8.93;8.17;;;6.30;80.30;;;;;;5092522;28;20666;-48
2022/04/03 07:19:53;;;;;;;8.77;7.97;;;6.40;79.90;;;;;;5092566;28;20594;-48
2022/04/03 07:22:19;;;;;;;7.97;7.27;;;6.50;79.30;;;;;;5099715;28;20191;-48
2022/04/03 07:24:45;;;;;;;9.03;8.10;;;6.60;78.90;;;;;;5114526;28;20581;-41
2022/04/03 07:27:10;;;;;;;8.43;7.63;;;6.70;78.50;;;;;;5113121;28;20555;-44
2022/04/03 07:29:36;;;;;;;8.00;7.20;;;6.80;77.90;;;;;;5113755;28;20699;-43
2022/04/03 07:32:02;;;;;;;10.33;8.37;;;6.90;77.30;;;;;;5114572;28;20604;-42
2022/04/03 07:34:28;;;;;;;10.43;7.63;;;6.90;76.50;;;;;;5114086;28;20187;-42
2022/04/03 07:36:54;;;;;;;9.10;8.20;;;6.90;76.00;;;;;;5115499;28;20543;-43
2022/04/03 07:39:20;;;;;;;8.17;7.43;;;7.00;75.70;;;;;;5114271;28;20183;-42
2022/04/03 07:41:46;;;;;;;8.23;7.43;;;7.00;75.50;;;;;;5117023;28;20490;-43
2022/04/03 07:44:18;;;;;;;8.07;7.30;;;7.00;75.00;;;;;;5116195;28;20518;-42
2022/04/03 07:46:44;;;;;;;9.57;7.17;;;7.00;74.60;;;;;;5117060;28;20414;-43
2022/04/03 07:49:10;;;;;;;7.57;6.90;;;7.10;74.40;;;;;;5116707;28;20520;-45
2022/04/03 07:51:36;;;;;;;7.70;7.00;;;7.30;74.20;;;;;;5116920;28;20214;-43
2022/04/03 07:54:02;;;;;;;7.10;6.50;;;7.40;73.70;;;;;;5116602;28;20429;-42
2022/04/03 07:56:28;;;;;;;8.10;6.67;;;7.60;73.10;;;;;;5115908;28;20800;-42
2022/04/03 07:58:54;;;;;;;8.30;7.50;;;7.70;72.50;;;;;;5114832;28;20426;-42
2022/04/03 08:01:20;;;;;;;7.57;6.87;;;7.80;71.50;;;;;;5115785;28;20410;-43
2022/04/03 08:03:45;;;;;;;7.00;6.40;;;7.90;71.00;;;;;;5115050;28;20176;-43
2022/04/03 08:06:11;;;;;;;7.70;6.87;;;8.10;70.20;;;;;;5114810;28;20284;-42
2022/04/03 08:08:37;;;;;;;7.43;6.83;;;8.30;70.00;;;;;;5114638;28;20635;-43
2022/04/03 08:11:02;;;;;;;6.90;6.20;;;8.50;69.40;;;;;;5114454;28;20469;-45
2022/04/03 08:13:28;;;;;;;6.50;5.97;;;8.70;68.40;;;;;;5114381;28;20184;-44
2022/04/03 08:15:54;;;;;;;6.60;6.00;;;8.90;67.30;;;;;;5115891;28;20188;-43
2022/04/03 08:18:22;;;;;;;7.23;6.10;;;9.20;66.60;;;;;;5116389;28;20180;-43
2022/04/03 08:20:48;;;;;;;5.97;5.47;;;9.60;65.70;;;;;;5107430;28;20548;-43
2022/04/03 08:23:13;;;;;;;6.27;5.77;;;10.00;63.40;;;;;;5108237;28;20498;-43
2022/04/03 08:25:39;;;;;;;6.00;5.50;;;10.30;62.00;;;;;;5108415;28;20279;-43
2022/04/03 08:28:07;;;;;;;6.30;5.70;;;10.50;60.20;;;;;;5109370;28;20208;-45
2022/04/03 08:30:34;;;;;;;6.13;5.63;;;10.60;59.40;;;;;;5108871;28;21187;-45
2022/04/03 08:33:01;;;;;;;6.00;5.23;;;10.70;58.30;;;;;;5109315;28;20425;-44
2022/04/03 08:35:28;;;;;;;6.57;5.53;;;10.70;57.60;;;;;;5108264;28;20766;-43
2022/04/03 08:37:54;;;;;;;6.47;5.83;;;10.80;57.20;;;;;;5108664;28;20693;-44
2022/04/03 08:40:22;;;;;;;7.10;6.13;;;10.80;56.90;;;;;;5108438;28;20433;-44
2022/04/03 08:42:51;;;;;;;6.23;5.63;;;10.80;56.70;;;;;;5107564;28;20560;-43
2022/04/03 08:45:16;;;;;;;5.40;4.90;;;10.80;56.20;;;;;;5109604;28;20437;-43
2022/04/03 08:47:46;;;;;;;6.50;6.00;;;10.80;55.90;;;;;;5107892;28;20775;-45
2022/04/03 08:50:13;;;;;;;5.33;4.93;;;10.70;55.90;;;;;;5107551;28;20484;-42
2022/04/03 08:52:44;;;;;;;4.60;3.70;;;10.70;55.70;;;;;;5102026;28;20480;-48
2022/04/03 08:55:10;;;;;;;3.37;3.07;;;10.80;59.10;;;;;;5105423;28;20517;-42
2022/04/03 08:57:35;;;;;;;4.60;4.20;;;11.10;73.10;;;;;;5104216;28;20501;-41
2022/04/03 09:00:01;;;;;;;6.43;5.83;;;11.30;70.30;;;;;;5104407;28;20717;-41
2022/04/03 09:02:27;;;;;;;7.50;6.80;;;11.30;63.60;;;;;;5103958;28;20199;-41
2022/04/03 09:04:53;;;;;;;6.03;5.53;;;11.10;59.70;;;;;;5103564;28;20215;-41
2022/04/03 09:07:19;;;;;;;8.87;7.13;;;11.00;58.10;;;;;;5104013;28;20429;-41
2022/04/03 09:09:47;;;;;;;7.20;6.50;;;10.90;57.10;;;;;;5103669;28;20184;-41
2022/04/03 09:12:16;;;;;;;7.30;6.70;;;11.00;56.50;;;;;;5103289;28;20478;-42
2022/04/03 09:14:54;;;;;;;6.77;6.17;;;11.20;56.00;;;;;;5085639;28;20538;-41
2022/04/03 09:17:40;;;;;;;6.43;5.93;;;11.30;55.50;;;;;;5103560;28;20422;-42
2022/04/03 09:20:09;;;;;;;6.00;5.40;;;11.30;54.90;;;;;;5105454;28;20414;-41
2022/04/03 09:22:36;;;;;;;5.13;4.73;;;11.50;54.60;;;;;;5105285;28;20468;-42
2022/04/03 09:25:07;;;;;;;6.07;5.60;;;12.00;54.20;;;;;;5105279;28;20424;-42
2022/04/03 09:27:34;;;;;;;7.00;5.83;;;12.30;53.40;;;;;;5104277;28;20529;-43
2022/04/03 09:30:05;;;;;;;5.10;4.60;;;12.40;52.30;;;;;;5106232;28;20417;-42
2022/04/03 09:32:31;;;;;;;5.33;4.83;;;12.40;51.70;;;;;;5106742;28;20462;-42
2022/04/03 09:34:57;;;;;;;5.43;4.93;;;12.30;50.70;;;;;;5106776;28;20745;-41
2022/04/03 09:37:24;;;;;;;5.60;4.90;;;12.10;50.20;;;;;;5107835;28;20633;-41
2022/04/03 09:39:50;;;;;;;4.93;4.53;;;12.10;49.90;;;;;;5103768;28;20442;-41
2022/04/03 09:42:16;;;;;;;5.00;4.60;;;11.90;49.70;;;;;;5105042;28;20783;-42
2022/04/03 09:44:44;;;;;;;5.10;4.60;;;11.90;49.70;;;;;;5104976;28;20196;-42
2022/04/03 09:47:33;;;;;;;5.27;4.77;;;11.80;49.50;;;;;;5106255;28;20495;-42
2022/04/03 09:50:02;;;;;;;5.03;4.57;;;11.70;49.40;;;;;;5110635;28;20429;-41
2022/04/03 09:52:43;;;;;;;5.17;4.40;;;11.70;49.40;;;;;;5106791;28;20480;-40
2022/04/03 09:55:21;;;;;;;4.50;4.10;;;11.60;49.40;;;;;;5107683;28;20410;-41
2022/04/03 09:58:10;;;;;;;5.53;4.77;;;11.50;49.10;;;;;;5108353;28;20417;-40
2022/04/03 10:00:41;;;;;;;4.63;4.23;;;11.40;49.10;;;;;;5111217;28;20412;-41
2022/04/03 10:03:10;;;;;;;4.37;4.00;;;11.40;49.10;;;;;;5108552;28;20426;-40
2022/04/03 10:05:36;;;;;;;4.93;3.70;;;11.30;49.10;;;;;;5110284;28;20414;-40
2022/04/03 10:08:06;;;;;;;4.57;4.17;;;11.30;49.10;;;;;;5108040;28;20427;-41
2022/04/03 10:10:33;;;;;;;4.83;4.43;;;11.40;49.20;;;;;;5106346;28;20423;-40
2022/04/03 10:12:59;;;;;;;4.80;4.00;;;11.60;49.10;;;;;;5106950;28;20445;-42
2022/04/03 10:15:25;;;;;;;4.27;3.87;;;11.70;49.00;;;;;;5109134;28;20434;-41
2022/04/03 10:17:52;;;;;;;4.77;3.33;;;11.90;48.60;;;;;;5107759;28;20528;-40
2022/04/03 10:20:17;;;;;;;4.07;3.73;;;12.20;48.10;;;;;;5107828;28;20663;-41
2022/04/03 10:22:47;;;;;;;3.87;3.43;;;12.60;48.00;;;;;;5107935;28;20425;-41
2022/04/03 10:25:15;;;;;;;4.20;3.53;;;13.10;47.70;;;;;;5108947;28;20515;-41
2022/04/03 10:27:43;;;;;;;4.60;2.97;;;13.30;46.90;;;;;;5106728;28;20409;-40
2022/04/03 10:30:10;;;;;;;3.70;3.40;;;13.40;46.40;;;;;;5089542;28;20581;-42
2022/04/03 10:32:36;;;;;;;4.33;3.83;;;13.30;45.90;;;;;;5108416;28;20469;-40
2022/04/03 10:35:10;;;;;;;4.70;4.30;;;13.10;45.60;;;;;;5107629;28;20432;-40
2022/04/03 10:37:41;;;;;;;4.87;4.40;;;12.80;45.40;;;;;;5108016;28;20983;-40
2022/04/03 10:40:15;;;;;;;4.10;3.63;;;12.40;45.40;;;;;;5110491;28;20971;-40
2022/04/03 10:42:51;;;;;;;4.83;4.10;;;12.00;45.50;;;;;;5109809;28;20464;-40
2022/04/03 10:45:51;;;;;;;10.00;7.60;;;11.70;45.90;;;;;;5105714;27;20429;-40
2022/04/03 10:48:19;;;;;;;9.10;7.40;;;11.40;46.20;;;;;;5060854;28;20449;-40
2022/04/03 10:50:55;;;;;;;7.23;6.30;;;11.00;46.50;;;;;;5106390;28;20712;-40
2022/04/03 10:53:25;;;;;;;9.13;6.90;;;10.60;46.80;;;;;;5108409;28;20533;-40
2022/04/03 10:55:55;;;;;;;7.17;6.47;;;10.30;47.30;;;;;;5105712;28;20432;-41
2022/04/03 10:58:21;;;;;;;6.93;6.30;;;10.00;47.80;;;;;;5108601;28;20436;-43
2022/04/03 11:00:48;;;;;;;7.70;7.00;;;9.80;49.00;;;;;;5105583;28;20531;-42
2022/04/03 11:03:13;;;;;;;7.17;6.50;;;9.50;49.30;;;;;;5104899;28;20859;-40
2022/04/03 11:05:39;;;;;;;7.23;6.53;;;9.40;49.80;;;;;;5106749;28;20430;-41
2022/04/03 11:08:04;;;;;;;6.73;6.13;;;9.20;50.30;;;;;;5111107;28;20262;-41
2022/04/03 11:10:54;;;;;;;6.20;5.70;;;9.20;50.70;;;;;;5106762;28;20489;-40
2022/04/03 11:13:32;;;;;;;6.07;5.23;;;9.20;51.10;;;;;;5107536;28;20181;-40
2022/04/03 11:16:01;;;;;;;6.17;5.57;;;9.10;51.30;;;;;;5096210;28;20465;-40
2022/04/03 11:19:04;;;;;;;5.40;4.90;;;9.00;51.10;;;;;;5108488;28;20495;-41
2022/04/03 11:21:37;;;;;;;5.47;4.93;;;8.90;51.00;;;;;;5055068;28;20594;-41
2022/04/03 11:24:10;;;;;;;6.40;5.20;;;8.70;51.00;;;;;;5107372;28;20449;-40
2022/04/03 11:26:39;;;;;;;5.50;5.00;;;8.60;51.30;;;;;;5105336;28;20438;-41
2022/04/03 11:29:06;;;;;;;6.43;4.70;;;8.50;51.60;;;;;;5107197;28;21062;-40
2022/04/03 11:31:33;;;;;;;6.80;4.43;;;8.40;52.10;;;;;;5107178;28;20826;-42
2022/04/03 11:33:59;;;;;;;5.00;4.60;;;8.20;52.90;;;;;;5106907;28;20429;-41
2022/04/03 11:36:30;;;;;;;6.10;4.70;;;8.10;52.80;;;;;;5106951;28;20480;-41
2022/04/03 11:38:56;;;;;;;5.33;4.80;;;8.00;53.20;;;;;;5105182;28;20650;-41
2022/04/03 11:41:37;;;;;;;5.53;4.97;;;8.00;53.50;;;;;;5105519;28;20591;-40
2022/04/03 11:44:09;;;;;;;4.87;4.47;;;8.00;53.70;;;;;;5105984;28;20487;-41
2022/04/03 11:46:43;;;;;;;5.10;4.60;;;8.00;53.80;;;;;;5105385;28;20643;-41
2022/04/03 11:49:21;;;;;;;4.83;4.30;;;8.10;53.80;;;;;;5106176;28;20437;-40
2022/04/03 11:51:48;;;;;;;4.67;4.27;;;8.30;53.80;;;;;;5105096;28;20469;-40
2022/04/03 11:54:15;;;;;;;5.50;4.40;;;8.40;53.70;;;;;;5104693;28;20481;-40
2022/04/03 11:56:40;;;;;;;4.50;4.10;;;8.60;53.70;;;;;;5107828;28;20418;-40
2022/04/03 11:59:08;;;;;;;5.10;4.47;;;8.80;53.50;;;;;;5107557;28;20433;-41
2022/04/03 12:01:41;;;;;;;4.47;4.07;;;9.10;53.30;;;;;;5105788;28;20814;-40
2022/04/03 12:04:14;;;;;;;4.40;4.00;;;9.30;53.00;;;;;;5107218;28;20508;-40
2022/04/03 12:06:44;;;;;;;5.00;4.07;;;9.60;52.80;;;;;;5108790;27;20442;-40
2022/04/03 12:09:24;;;;;;;4.50;4.10;;;9.80;52.40;;;;;;5107371;28;20726;-40
2022/04/03 12:11:53;;;;;;;4.90;4.40;;;10.00;51.30;;;;;;5108632;28;20959;-40
2022/04/03 12:14:41;;;;;;;4.90;4.30;;;10.10;50.80;;;;;;5107550;28;20444;-40
2022/04/03 12:17:09;;;;;;;4.73;4.00;;;10.20;50.50;;;;;;5107784;28;20719;-41
2022/04/03 12:19:47;;;;;;;5.17;4.67;;;10.20;50.30;;;;;;5109287;28;20441;-40
2022/04/03 12:22:14;;;;;;;4.83;4.43;;;10.20;50.10;;;;;;5107224;28;20422;-40
2022/04/03 12:24:41;;;;;;;15.47;12.77;;;10.20;50.10;;;;;;5105390;28;20857;-40
2022/04/03 12:27:17;;;;;;;13.00;11.40;;;10.20;50.20;;;;;;5108577;28;20424;-41
2022/04/03 12:29:46;;;;;;;11.60;10.50;;;10.00;50.10;;;;;;5108724;28;20445;-41
2022/04/03 12:32:16;;;;;;;8.77;7.50;;;9.80;50.80;;;;;;5106621;28;20474;-40
2022/04/03 12:34:44;;;;;;;7.80;7.10;;;9.70;50.90;;;;;;5106135;28;20600;-40
2022/04/03 12:37:11;;;;;;;8.63;7.73;;;9.50;51.10;;;;;;5106782;28;20649;-41
2022/04/03 12:39:52;;;;;;;6.47;5.87;;;9.20;51.40;;;;;;5106775;28;20421;-40
2022/04/03 12:42:32;;;;;;;7.93;7.23;;;9.00;51.90;;;;;;5106535;28;20517;-40
2022/04/03 12:45:12;;;;;;;8.57;7.27;;;8.90;52.50;;;;;;5105344;28;20441;-41
2022/04/03 12:47:42;;;;;;;8.57;7.70;;;8.80;53.00;;;;;;5105269;28;20414;-40